createdAt,value
2023-05-13T00:00:19.249Z,98780.00
2023-05-13T00:02:48.764Z,98778.00
2023-05-13T00:05:18.476Z,98793.00
2023-05-13T00:07:47.608Z,98792.00
2023-05-13T00:10:17.524Z,98799.00
2023-05-13T00:12:46.773Z,98808.00
2023-05-13T00:15:16.257Z,98809.00
2023-05-13T00:17:45.789Z,98816.00
2023-05-13T00:20:15.053Z,98813.00
2023-05-13T00:22:44.523Z,98831.00
2023-05-13T00:25:13.736Z,98829.00
2023-05-13T00:27:42.933Z,98840.00
2023-05-13T00:30:12.718Z,98841.00
2023-05-13T00:32:41.976Z,98842.00
2023-05-13T00:35:11.560Z,98838.00
2023-05-13T00:37:40.766Z,98847.00
2023-05-13T00:40:23.740Z,98841.00
2023-05-13T00:42:53.819Z,98847.00
2023-05-13T00:45:23.144Z,98841.00
2023-05-13T00:47:52.953Z,98853.00
2023-05-13T00:50:22.910Z,98851.00
2023-05-13T00:52:53.167Z,98861.00
2023-05-13T00:55:23.174Z,98867.00
2023-05-13T00:57:52.351Z,98859.00
2023-05-13T01:00:22.065Z,98864.00
2023-05-13T01:02:55.017Z,98862.00
2023-05-13T01:06:15.061Z,98861.00
2023-05-13T01:09:17.337Z,98873.00
2023-05-13T01:11:51.662Z,98866.00
2023-05-13T01:14:37.020Z,98875.00
2023-05-13T01:17:33.086Z,98883.00
2023-05-13T01:20:06.812Z,98892.00
2023-05-13T01:22:36.044Z,98896.00
2023-05-13T01:25:05.310Z,98899.00
2023-05-13T01:27:34.588Z,98898.00
2023-05-13T01:30:04.559Z,98899.00
2023-05-13T01:32:37.285Z,98896.00
2023-05-13T01:35:08.937Z,98900.00
2023-05-13T01:37:39.759Z,98912.00
2023-05-13T01:40:24.282Z,98916.00
2023-05-13T01:43:00.236Z,98916.00
2023-05-13T01:45:36.434Z,98916.00
2023-05-13T01:48:05.986Z,98905.00
2023-05-13T01:50:35.291Z,98914.00
2023-05-13T01:53:04.430Z,98902.00
2023-05-13T01:55:33.498Z,98900.00
2023-05-13T01:58:14.146Z,98894.00
2023-05-13T02:03:52.583Z,98880.00
2023-05-13T02:06:26.800Z,98895.00
2023-05-13T02:08:56.114Z,98894.00
2023-05-13T02:11:29.157Z,98895.00
2023-05-13T02:14:08.325Z,98899.00
2023-05-13T02:16:37.488Z,98906.00
2023-05-13T02:19:08.254Z,98908.00
2023-05-13T02:21:37.519Z,98905.00
2023-05-13T02:24:08.902Z,98902.00
2023-05-13T02:26:45.011Z,98903.00
2023-05-13T02:29:14.235Z,98903.00
2023-05-13T02:31:44.191Z,98894.00
2023-05-13T02:34:13.348Z,98898.00
2023-05-13T02:36:42.472Z,98902.00
2023-05-13T02:39:11.632Z,98899.00
2023-05-13T02:41:41.089Z,98890.00
2023-05-13T02:44:10.154Z,98899.00
2023-05-13T02:46:39.357Z,98897.00
2023-05-13T02:49:08.475Z,98891.00
2023-05-13T02:51:37.568Z,98891.00
2023-05-13T02:54:06.744Z,98891.00
2023-05-13T02:56:35.801Z,98891.00
2023-05-13T02:59:04.875Z,98885.00
2023-05-13T03:01:34.193Z,98890.00
2023-05-13T03:04:09.616Z,98885.00
2023-05-13T03:06:39.000Z,98885.00
2023-05-13T03:09:08.261Z,98881.00
2023-05-13T03:11:42.975Z,98884.00
2023-05-13T03:14:12.168Z,98879.00
2023-05-13T03:16:45.883Z,98882.00
2023-05-13T03:19:14.993Z,98875.00
2023-05-13T03:21:44.121Z,98874.00
2023-05-13T03:24:13.237Z,98867.00
2023-05-13T03:26:42.389Z,98871.00
2023-05-13T03:29:11.600Z,98867.00
2023-05-13T03:31:40.953Z,98863.00
2023-05-13T03:34:09.977Z,98856.00
2023-05-13T03:36:39.251Z,98856.00
2023-05-13T03:39:08.409Z,98853.00
2023-05-13T03:41:38.775Z,98845.00
2023-05-13T03:44:07.928Z,98845.00
2023-05-13T03:46:37.135Z,98839.00
2023-05-13T03:49:06.299Z,98839.00
2023-05-13T03:51:35.498Z,98827.00
2023-05-13T03:54:04.887Z,98827.00
2023-05-13T03:56:33.999Z,98825.00
2023-05-13T03:59:03.118Z,98821.00
2023-05-13T04:01:32.801Z,98820.00
2023-05-13T04:04:02.052Z,98816.00
2023-05-13T04:06:31.406Z,98812.00
2023-05-13T04:09:02.184Z,98816.00
2023-05-13T04:11:32.479Z,98819.00
2023-05-13T04:14:03.803Z,98821.00
2023-05-13T04:16:35.727Z,98820.00
2023-05-13T04:19:05.100Z,98818.00
2023-05-13T04:21:34.389Z,98816.00
2023-05-13T04:24:03.575Z,98823.00
2023-05-13T04:26:32.691Z,98824.00
2023-05-13T04:29:01.819Z,98813.00
2023-05-13T04:31:31.218Z,98812.00
2023-05-13T04:34:00.546Z,98800.00
2023-05-13T04:36:29.724Z,98806.00
2023-05-13T04:38:58.928Z,98799.00
2023-05-13T04:41:28.094Z,98805.00
2023-05-13T04:43:57.283Z,98804.00
2023-05-13T04:46:27.033Z,98801.00
2023-05-13T04:49:02.536Z,98805.00
2023-05-13T04:51:33.486Z,98808.00
2023-05-13T04:54:06.365Z,98803.00
2023-05-13T04:56:35.813Z,98802.00
2023-05-13T04:59:04.883Z,98809.00
2023-05-13T05:01:34.188Z,98808.00
2023-05-13T05:04:03.672Z,98812.00
2023-05-13T05:06:33.608Z,98811.00
2023-05-13T05:09:02.694Z,98797.00
2023-05-13T05:11:31.873Z,98771.00
2023-05-13T05:14:00.995Z,98763.00
2023-05-13T05:16:30.070Z,98747.00
2023-05-13T05:18:59.119Z,98754.00
2023-05-13T05:21:28.464Z,98761.00
2023-05-13T05:23:57.918Z,98765.00
2023-05-13T05:26:27.148Z,98775.00
2023-05-13T05:28:56.338Z,98787.00
2023-05-13T05:31:25.540Z,98798.00
2023-05-13T05:33:54.887Z,98798.00
2023-05-13T05:36:24.126Z,98798.00
2023-05-13T05:38:53.699Z,98800.00
2023-05-13T05:41:23.200Z,98802.00
2023-05-13T05:43:52.402Z,98795.00
2023-05-13T05:46:21.496Z,98793.00
2023-05-13T05:48:54.920Z,98792.00
2023-05-13T05:51:28.226Z,98786.00
2023-05-13T05:53:59.595Z,98774.00
2023-05-13T05:56:37.735Z,98773.00
2023-05-13T05:59:11.579Z,98767.00
2023-05-13T06:01:40.733Z,98779.00
2023-05-13T06:04:09.919Z,98767.00
2023-05-13T06:06:41.346Z,98753.00
2023-05-13T06:09:10.485Z,98747.00
2023-05-13T06:11:45.076Z,98745.00
2023-05-13T06:14:14.187Z,98739.00
2023-05-13T06:16:43.274Z,98745.00
2023-05-13T06:19:12.558Z,98733.00
2023-05-13T06:21:44.090Z,98717.00
2023-05-13T06:24:13.235Z,98714.00
2023-05-13T06:26:42.400Z,98705.00
2023-05-13T06:29:11.493Z,98695.00
2023-05-13T06:31:40.597Z,98694.00
2023-05-13T06:34:09.740Z,98695.00
2023-05-13T06:36:38.851Z,98678.00
2023-05-13T06:39:07.875Z,98675.00
2023-05-13T06:41:37.029Z,98662.00
2023-05-13T06:44:07.622Z,98652.00
2023-05-13T06:46:37.154Z,98640.00
2023-05-13T06:49:06.288Z,98626.00
2023-05-13T06:51:35.921Z,98617.00
2023-05-13T06:54:05.268Z,98602.00
2023-05-13T06:56:34.472Z,98592.00
2023-05-13T06:59:03.541Z,98589.00
2023-05-13T07:01:32.820Z,98588.00
2023-05-13T07:04:02.017Z,98597.00
2023-05-13T07:06:31.578Z,98590.00
2023-05-13T07:09:00.912Z,98592.00
2023-05-13T07:11:30.125Z,98589.00
2023-05-13T07:13:59.238Z,98607.00
2023-05-13T07:16:28.559Z,98608.00
2023-05-13T07:18:57.738Z,98608.00
2023-05-13T07:21:26.920Z,98611.00
2023-05-13T07:23:55.984Z,98618.00
2023-05-13T07:26:25.218Z,98612.00
2023-05-13T07:28:54.260Z,98612.00
2023-05-13T07:31:23.412Z,98610.00
2023-05-13T07:33:52.513Z,98624.00
2023-05-13T07:36:21.659Z,98620.00
2023-05-13T07:38:50.865Z,98614.00
2023-05-13T07:41:19.985Z,98613.00
2023-05-13T07:43:49.232Z,98612.00
2023-05-13T07:46:18.320Z,98624.00
2023-05-13T07:48:47.400Z,98626.00
2023-05-13T07:51:19.289Z,98627.00
2023-05-13T07:53:48.428Z,98615.00
2023-05-13T07:56:17.446Z,98619.00
2023-05-13T07:58:47.023Z,98609.00
2023-05-13T08:01:16.352Z,98607.00
2023-05-13T08:03:45.559Z,98590.00
2023-05-13T08:06:14.817Z,98589.00
2023-05-13T08:08:43.860Z,98586.00
2023-05-13T08:11:13.262Z,98575.00
2023-05-13T08:13:42.288Z,98577.00
2023-05-13T08:16:11.463Z,98572.00
2023-05-13T08:18:40.640Z,98566.00
2023-05-13T08:21:09.717Z,98563.00
2023-05-13T08:23:45.413Z,98558.00
2023-05-13T08:26:15.838Z,98553.00
2023-05-13T08:28:44.962Z,98549.00
2023-05-13T08:31:17.863Z,98547.00
2023-05-13T08:33:49.408Z,98548.00
2023-05-13T08:36:18.900Z,98543.00
2023-05-13T08:38:48.214Z,98549.00
2023-05-13T08:41:18.956Z,98548.00
2023-05-13T08:43:53.275Z,98552.00
2023-05-13T08:46:33.714Z,98543.00
2023-05-13T08:49:04.724Z,98550.00
2023-05-13T08:51:33.905Z,98541.00
2023-05-13T08:54:04.720Z,98542.00
2023-05-13T08:56:33.897Z,98534.00
2023-05-13T08:59:03.140Z,98530.00
2023-05-13T09:01:33.922Z,98528.00
2023-05-13T09:04:11.377Z,98519.00
2023-05-13T09:06:40.503Z,98520.00
2023-05-13T09:09:10.711Z,98515.00
2023-05-13T09:11:43.286Z,98512.00
2023-05-13T09:14:15.250Z,98512.00
2023-05-13T09:16:44.647Z,98508.00
2023-05-13T09:19:14.724Z,98508.00
2023-05-13T09:21:46.322Z,98503.00
2023-05-13T09:24:22.311Z,98499.00
2023-05-13T09:26:53.160Z,98491.00
2023-05-13T09:29:31.420Z,98490.00
2023-05-13T09:32:03.373Z,98491.00
2023-05-13T09:34:35.264Z,98485.00
2023-05-13T09:37:09.774Z,98487.00
2023-05-13T09:39:43.455Z,98484.00
2023-05-13T09:42:20.430Z,98484.00
2023-05-13T09:44:50.827Z,98484.00
2023-05-13T09:47:20.027Z,98488.00
2023-05-13T09:49:58.672Z,98498.00
2023-05-13T09:52:27.735Z,98490.00
2023-05-13T09:55:00.378Z,98488.00
2023-05-13T09:57:30.392Z,98500.00
2023-05-13T10:00:12.797Z,98505.00
2023-05-13T10:02:44.595Z,98505.00
2023-05-13T10:05:14.221Z,98513.00
2023-05-13T10:07:43.565Z,98506.00
2023-05-13T10:10:13.507Z,98496.00
2023-05-13T10:12:44.054Z,98506.00
2023-05-13T10:15:13.372Z,98509.00
2023-05-13T10:17:45.761Z,98514.00
2023-05-13T10:20:15.646Z,98521.00
2023-05-13T10:22:46.019Z,98522.00
2023-05-13T10:25:15.077Z,98525.00
2023-05-13T10:27:46.289Z,98526.00
2023-05-13T10:30:17.236Z,98529.00
2023-05-13T10:32:47.123Z,98539.00
2023-05-13T10:35:19.996Z,98549.00
2023-05-13T10:38:21.777Z,98540.00
2023-05-13T10:42:01.041Z,98545.00
2023-05-13T10:44:30.417Z,98537.00
2023-05-13T10:47:00.118Z,98549.00
2023-05-13T10:49:36.127Z,98554.00
2023-05-13T10:52:12.765Z,98561.00
2023-05-13T10:54:43.329Z,98550.00
2023-05-13T10:57:15.096Z,98562.00
2023-05-13T11:00:18.222Z,98565.00
2023-05-13T11:02:47.593Z,98556.00
2023-05-13T11:05:23.387Z,98559.00
2023-05-13T11:07:59.577Z,98563.00
2023-05-13T11:10:33.955Z,98563.00
2023-05-13T11:13:12.805Z,98566.00
2023-05-13T11:15:56.511Z,98571.00
2023-05-13T11:18:32.846Z,98589.00
2023-05-13T11:21:06.337Z,98590.00
2023-05-13T11:23:59.357Z,98596.00
2023-05-13T11:26:42.404Z,98600.00
2023-05-13T11:29:11.584Z,98611.00
2023-05-13T11:32:00.069Z,98613.00
2023-05-13T11:34:30.993Z,98618.00
2023-05-13T11:37:05.959Z,98625.00
2023-05-13T11:39:36.078Z,98621.00
2023-05-13T11:42:10.782Z,98634.00
2023-05-13T11:44:48.265Z,98640.00
2023-05-13T11:47:28.621Z,98646.00
2023-05-13T11:49:58.292Z,98649.00
2023-05-13T11:52:30.274Z,98648.00
2023-05-13T11:55:00.073Z,98648.00
2023-05-13T11:57:33.667Z,98646.00
2023-05-13T12:00:09.927Z,98644.00
2023-05-13T12:02:42.645Z,98644.00
2023-05-13T12:05:13.815Z,98645.00
2023-05-13T12:07:43.012Z,98650.00
2023-05-13T12:10:12.887Z,98648.00
2023-05-13T12:12:45.658Z,98650.00
2023-05-13T12:15:24.835Z,98661.00
2023-05-13T12:18:01.632Z,98664.00
2023-05-13T12:20:30.924Z,98667.00
2023-05-13T12:23:04.015Z,98669.00
2023-05-13T12:25:52.394Z,98666.00
2023-05-13T12:28:24.608Z,98669.00
2023-05-13T12:31:01.615Z,98674.00
2023-05-13T12:33:43.926Z,98670.00
2023-05-13T12:36:36.735Z,98664.00
2023-05-13T12:39:12.070Z,98669.00
2023-05-13T12:41:55.126Z,98677.00
2023-05-13T12:44:27.668Z,98669.00
2023-05-13T12:47:02.824Z,98674.00
2023-05-13T12:49:32.132Z,98673.00
2023-05-13T12:52:01.266Z,98679.00
2023-05-13T12:54:30.413Z,98682.00
2023-05-13T12:56:59.716Z,98685.00
2023-05-13T12:59:30.488Z,98676.00
2023-05-13T13:02:00.147Z,98681.00
2023-05-13T13:04:31.197Z,98677.00
2023-05-13T13:07:00.480Z,98678.00
2023-05-13T13:09:29.645Z,98683.00
2023-05-13T13:11:58.777Z,98680.00
2023-05-13T13:14:27.962Z,98689.00
2023-05-13T13:16:57.134Z,98688.00
2023-05-13T13:19:26.610Z,98694.00
2023-05-13T13:21:55.914Z,98694.00
2023-05-13T13:24:25.183Z,98689.00
2023-05-13T13:26:56.524Z,98696.00
2023-05-13T13:29:26.012Z,98715.00
2023-05-13T13:31:55.241Z,98724.00
2023-05-13T13:34:24.413Z,98725.00
2023-05-13T13:36:53.671Z,98729.00
2023-05-13T13:39:23.450Z,98733.00
2023-05-13T13:41:52.563Z,98727.00
2023-05-13T13:44:21.748Z,98726.00
2023-05-13T13:46:51.366Z,98733.00
2023-05-13T13:49:23.869Z,98731.00
2023-05-13T13:51:56.668Z,98744.00
2023-05-13T13:54:25.827Z,98745.00
2023-05-13T13:56:55.388Z,98746.00
2023-05-13T13:59:45.024Z,98750.00
2023-05-13T14:02:14.430Z,98749.00
2023-05-13T14:04:43.859Z,98748.00
2023-05-13T14:07:22.260Z,98752.00
2023-05-13T14:09:54.314Z,98752.00
2023-05-13T14:12:29.538Z,98751.00
2023-05-13T14:15:10.371Z,98754.00
2023-05-13T14:17:47.853Z,98767.00
2023-05-13T14:20:17.132Z,98773.00
2023-05-13T14:22:46.358Z,98779.00
2023-05-13T14:25:15.988Z,98773.00
2023-05-13T14:27:45.203Z,98778.00
2023-05-13T14:30:14.833Z,98775.00
2023-05-13T14:32:48.245Z,98779.00
2023-05-13T14:35:18.505Z,98782.00
2023-05-13T14:37:48.292Z,98782.00
2023-05-13T14:40:17.604Z,98772.00
2023-05-13T14:42:46.848Z,98764.00
2023-05-13T14:45:18.381Z,98769.00
2023-05-13T14:47:48.242Z,98778.00
2023-05-13T14:50:17.521Z,98773.00
2023-05-13T14:52:47.287Z,98792.00
2023-05-13T14:55:20.997Z,98785.00
2023-05-13T14:57:50.502Z,98806.00
2023-05-13T15:00:20.504Z,98804.00
2023-05-13T15:02:50.052Z,98805.00
2023-05-13T15:05:19.596Z,98803.00
2023-05-13T15:07:51.798Z,98804.00
2023-05-13T15:10:21.502Z,98805.00
2023-05-13T15:12:50.860Z,98808.00
2023-05-13T15:15:20.126Z,98810.00
2023-05-13T15:17:49.720Z,98803.00
2023-05-13T15:20:20.076Z,98798.00
2023-05-13T15:22:51.366Z,98802.00
2023-05-13T15:25:20.718Z,98812.00
2023-05-13T15:27:50.962Z,98812.00
2023-05-13T15:30:20.643Z,98807.00
2023-05-13T15:32:50.080Z,98809.00
2023-05-13T15:35:19.413Z,98813.00
2023-05-13T15:37:48.811Z,98806.00
2023-05-13T15:40:18.227Z,98809.00
2023-05-13T15:42:49.207Z,98817.00
2023-05-13T15:45:18.719Z,98808.00
2023-05-13T15:47:51.078Z,98807.00
2023-05-13T15:50:23.516Z,98808.00
2023-05-13T15:52:53.209Z,98801.00
2023-05-13T15:55:25.391Z,98799.00
2023-05-13T15:57:54.627Z,98801.00
2023-05-13T16:00:24.739Z,98800.00
2023-05-13T16:02:54.118Z,98802.00
2023-05-13T16:05:23.459Z,98805.00
2023-05-13T16:07:52.561Z,98806.00
2023-05-13T16:10:21.989Z,98816.00
2023-05-13T16:12:51.387Z,98811.00
2023-05-13T16:15:21.565Z,98803.00
2023-05-13T16:17:50.791Z,98805.00
2023-05-13T16:20:22.974Z,98804.00
2023-05-13T16:22:52.227Z,98803.00
2023-05-13T16:25:23.647Z,98800.00
2023-05-13T16:27:54.499Z,98797.00
2023-05-13T16:30:24.572Z,98798.00
2023-05-13T16:32:55.203Z,98801.00
2023-05-13T16:35:24.793Z,98801.00
2023-05-13T16:37:53.955Z,98800.00
2023-05-13T16:40:23.342Z,98801.00
2023-05-13T16:42:52.705Z,98807.00
2023-05-13T16:45:22.032Z,98798.00
2023-05-13T16:47:52.108Z,98803.00
2023-05-13T16:50:21.583Z,98795.00
2023-05-13T16:52:50.717Z,98797.00
2023-05-13T16:55:27.060Z,98802.00
2023-05-13T16:57:56.356Z,98798.00
2023-05-13T17:00:25.595Z,98785.00
2023-05-13T17:02:55.489Z,98787.00
2023-05-13T17:05:24.762Z,98786.00
2023-05-13T17:07:54.048Z,98791.00
2023-05-13T17:10:23.405Z,98787.00
2023-05-13T17:12:57.670Z,98783.00
2023-05-13T17:15:27.564Z,98776.00
2023-05-13T17:17:57.137Z,98778.00
2023-05-13T17:20:26.518Z,98773.00
2023-05-13T17:22:55.703Z,98770.00
2023-05-13T17:25:24.858Z,98769.00
2023-05-13T17:27:54.047Z,98768.00
2023-05-13T17:30:24.089Z,98758.00
2023-05-13T17:32:56.685Z,98762.00
2023-05-13T17:35:25.956Z,98760.00
2023-05-13T17:37:55.251Z,98748.00
2023-05-13T17:40:24.673Z,98742.00
2023-05-13T17:42:54.009Z,98732.00
2023-05-13T17:45:24.132Z,98723.00
2023-05-13T17:47:53.458Z,98721.00
2023-05-13T17:50:23.324Z,98713.00
2023-05-13T17:52:53.367Z,98704.00
2023-05-13T17:55:22.579Z,98705.00
2023-05-13T17:57:51.757Z,98713.00
2023-05-13T18:00:21.915Z,98704.00
2023-05-13T18:02:51.488Z,98696.00
2023-05-13T18:05:22.637Z,98702.00
2023-05-13T18:07:52.239Z,98702.00
2023-05-13T18:10:21.731Z,98691.00
2023-05-13T18:12:52.748Z,98690.00
2023-05-13T18:15:22.348Z,98681.00
2023-05-13T18:17:52.102Z,98672.00
2023-05-13T18:20:22.445Z,98679.00
2023-05-13T18:22:51.826Z,98677.00
2023-05-13T18:25:21.029Z,98673.00
2023-05-13T18:27:51.478Z,98671.00
2023-05-13T18:30:21.246Z,98669.00
2023-05-13T18:32:51.760Z,98655.00
2023-05-13T18:35:22.463Z,98655.00
2023-05-13T18:37:52.273Z,98652.00
2023-05-13T18:40:22.305Z,98654.00
2023-05-13T18:42:51.699Z,98652.00
2023-05-13T18:45:20.944Z,98645.00
2023-05-13T18:47:50.239Z,98658.00
2023-05-13T18:50:19.530Z,98654.00
2023-05-13T18:52:48.787Z,98648.00
2023-05-13T18:55:18.164Z,98647.00
2023-05-13T18:57:47.445Z,98645.00
2023-05-13T19:00:17.237Z,98642.00
2023-05-13T19:02:47.327Z,98634.00
2023-05-13T19:05:18.451Z,98641.00
2023-05-13T19:07:49.601Z,98632.00
2023-05-13T19:10:18.785Z,98630.00
2023-05-13T19:12:47.946Z,98633.00
2023-05-13T19:15:17.252Z,98634.00
2023-05-13T19:17:47.366Z,98631.00
2023-05-13T19:20:18.294Z,98625.00
2023-05-13T19:22:47.526Z,98622.00
2023-05-13T19:25:16.903Z,98617.00
2023-05-13T19:27:50.432Z,98613.00
2023-05-13T19:30:19.660Z,98615.00
2023-05-13T19:32:48.971Z,98615.00
2023-05-13T19:35:18.872Z,98622.00
2023-05-13T19:37:48.068Z,98620.00
2023-05-13T19:40:17.352Z,98619.00
2023-05-13T19:42:46.580Z,98621.00
2023-05-13T19:45:15.908Z,98611.00
2023-05-13T19:47:45.125Z,98613.00
2023-05-13T19:50:15.260Z,98610.00
2023-05-13T19:52:44.761Z,98609.00
2023-05-13T19:55:14.404Z,98600.00
2023-05-13T19:57:44.295Z,98596.00
2023-05-13T20:00:16.138Z,98594.00
2023-05-13T20:02:45.556Z,98600.00
2023-05-13T20:05:14.821Z,98594.00
2023-05-13T20:07:44.027Z,98590.00
2023-05-13T20:10:13.746Z,98595.00
2023-05-13T20:12:43.117Z,98586.00
2023-05-13T20:15:12.842Z,98584.00
2023-05-13T20:17:42.694Z,98590.00
2023-05-13T20:20:12.458Z,98589.00
2023-05-13T20:22:41.677Z,98586.00
2023-05-13T20:25:12.075Z,98583.00
2023-05-13T20:27:41.348Z,98583.00
2023-05-13T20:30:11.479Z,98576.00
2023-05-13T20:32:40.848Z,98579.00
2023-05-13T20:35:11.155Z,98574.00
2023-05-13T20:37:40.339Z,98578.00
2023-05-13T20:40:10.406Z,98578.00
2023-05-13T20:42:39.664Z,98582.00
2023-05-13T20:45:09.697Z,98583.00
2023-05-13T20:47:38.886Z,98579.00
2023-05-13T20:50:08.902Z,98583.00
2023-05-13T20:52:38.272Z,98582.00
2023-05-13T20:55:08.182Z,98586.00
2023-05-13T20:57:37.324Z,98583.00
2023-05-13T21:00:07.243Z,98582.00
2023-05-13T21:02:36.835Z,98575.00
2023-05-13T21:05:06.446Z,98572.00
2023-05-13T21:07:37.118Z,98577.00
2023-05-13T21:10:07.078Z,98582.00
2023-05-13T21:12:36.181Z,98582.00
2023-05-13T21:15:05.690Z,98592.00
2023-05-13T21:17:34.949Z,98590.00
2023-05-13T21:20:05.140Z,98586.00
2023-05-13T21:22:34.313Z,98593.00
2023-05-13T21:25:03.675Z,98611.00
2023-05-13T21:27:32.851Z,98621.00
2023-05-13T21:30:02.030Z,98621.00
2023-05-13T21:32:31.278Z,98617.00
2023-05-13T21:35:00.483Z,98597.00
2023-05-13T21:37:29.795Z,98632.00
2023-05-13T21:39:59.082Z,98643.00
2023-05-13T21:42:28.388Z,98649.00
2023-05-13T21:44:58.269Z,98647.00
2023-05-13T21:47:29.945Z,98643.00
2023-05-13T21:49:59.449Z,98636.00
2023-05-13T21:52:28.696Z,98636.00
2023-05-13T21:54:58.053Z,98651.00
2023-05-13T21:57:27.391Z,98658.00
2023-05-13T21:59:56.673Z,98660.00
2023-05-13T22:02:26.273Z,98669.00
2023-05-13T22:04:55.401Z,98666.00
2023-05-13T22:07:24.684Z,98664.00
2023-05-13T22:09:53.874Z,98656.00
2023-05-13T22:12:23.043Z,98661.00
2023-05-13T22:14:53.281Z,98661.00
2023-05-13T22:17:23.382Z,98656.00
2023-05-13T22:19:52.858Z,98662.00
2023-05-13T22:22:21.982Z,98662.00
2023-05-13T22:24:51.445Z,98662.00
2023-05-13T22:27:20.655Z,98674.00
2023-05-13T22:29:49.721Z,98674.00
2023-05-13T22:32:18.819Z,98680.00
2023-05-13T22:34:48.178Z,98675.00
2023-05-13T22:37:17.571Z,98675.00
2023-05-13T22:39:46.792Z,98677.00
2023-05-13T22:42:15.912Z,98684.00
2023-05-13T22:44:45.051Z,98690.00
2023-05-13T22:47:14.154Z,98705.00
2023-05-13T22:49:43.363Z,98702.00
2023-05-13T22:52:12.499Z,98704.00
2023-05-13T22:54:42.511Z,98708.00
2023-05-13T22:57:12.214Z,98698.00
2023-05-13T22:59:41.394Z,98703.00
2023-05-13T23:02:10.655Z,98705.00
2023-05-13T23:04:39.950Z,98704.00
2023-05-13T23:07:10.145Z,98708.00
2023-05-13T23:09:39.358Z,98714.00
2023-05-13T23:12:09.103Z,98708.00
2023-05-13T23:14:38.233Z,98713.00
2023-05-13T23:17:07.492Z,98721.00
2023-05-13T23:19:39.017Z,98738.00
2023-05-13T23:22:08.152Z,98734.00
2023-05-13T23:24:37.292Z,98736.00
2023-05-13T23:27:06.740Z,98742.00
2023-05-13T23:29:35.951Z,98742.00
2023-05-13T23:32:06.666Z,98739.00
2023-05-13T23:34:36.462Z,98748.00
2023-05-13T23:37:06.062Z,98750.00
2023-05-13T23:39:35.237Z,98762.00
2023-05-13T23:42:04.497Z,98762.00
2023-05-13T23:44:36.287Z,98762.00
2023-05-13T23:47:06.769Z,98769.00
2023-05-13T23:49:35.973Z,98772.00
2023-05-13T23:52:05.344Z,98783.00
2023-05-13T23:54:34.568Z,98795.00
2023-05-13T23:57:03.790Z,98793.00
2023-05-13T23:59:33.071Z,98803.00
